Time;durP1;ratioP1;P1;durP2;ratioP2;P2;SDS_P1;SDS_P2;PMS_P1;PMS_P2;Temp;Humidity;BMP_temperature;BMP_pressure;BME280_temperature;BME280_humidity;BME280_pressure;Samples;Min_cycle;Max_cycle;Signal;HPM_P1;HPM_P2
2021/08/03 00:00:49;;;;;;;27.40;9.38;;;;;;;;;;143730;569;46012;-54
2021/08/03 00:03:16;;;;;;;44.88;10.93;;;;;;;;;;143727;590;46021;-54
2021/08/03 00:05:50;;;;;;;28.02;9.63;;;;;;;;;;143727;730;46010;-53
2021/08/03 00:08:37;;;;;;;45.83;11.52;;;;;;;;;;143726;580;46018;-53
2021/08/03 00:11:08;;;;;;;38.22;10.15;;;;;;;;;;143729;569;46023;-53
2021/08/03 00:13:37;;;;;;;43.50;11.35;;;;;;;;;;143729;577;46018;-53
2021/08/03 00:16:11;;;;;;;32.20;8.98;;;;;;;;;;143727;582;46010;-53
2021/08/03 00:18:39;;;;;;;35.72;10.15;;;;;;;;;;143729;593;46019;-53
2021/08/03 00:21:08;;;;;;;30.98;10.70;;;;;;;;;;143728;700;46022;-53
2021/08/03 00:23:37;;;;;;;30.12;9.23;;;;;;;;;;143727;595;46018;-53
2021/08/03 00:26:05;;;;;;;40.58;10.13;;;;;;;;;;143727;647;46010;-53
2021/08/03 00:28:32;;;;;;;40.95;10.52;;;;;;;;;;143729;569;46018;-54
2021/08/03 00:30:59;;;;;;;29.40;9.38;;;;;;;;;;143731;724;45023;-54
2021/08/03 00:33:26;;;;;;;31.87;10.30;;;;;;;;;;143726;569;46021;-54
2021/08/03 00:35:53;;;;;;;36.53;10.38;;;;;;;;;;143728;655;46022;-53
2021/08/03 00:38:20;;;;;;;31.85;10.25;;;;;;;;;;143727;570;46018;-54
2021/08/03 00:41:03;;;;;;;33.90;10.50;;;;;;;;;;143731;678;46012;-54
2021/08/03 00:43:30;;;;;;;43.97;10.63;;;;;;;;;;143729;572;46018;-54
2021/08/03 00:45:57;;;;;;;44.97;10.70;;;;;;;;;;143728;581;46011;-54
2021/08/03 00:48:25;;;;;;;52.62;11.82;;;;;;;;;;143725;591;46019;-53
2021/08/03 00:50:52;;;;;;;32.53;9.85;;;;;;;;;;143730;596;46012;-53
2021/08/03 00:53:19;;;;;;;43.63;11.27;;;;;;;;;;143728;583;46019;-54
2021/08/03 00:55:46;;;;;;;42.47;10.07;;;;;;;;;;143726;587;46011;-53
2021/08/03 00:58:13;;;;;;;41.53;11.45;;;;;;;;;;143726;601;46018;-54
2021/08/03 01:00:40;;;;;;;39.63;10.07;;;;;;;;;;143731;570;46010;-54
2021/08/03 01:03:08;;;;;;;37.08;10.30;;;;;;;;;;143727;585;46019;-54
2021/08/03 01:06:12;;;;;;;30.33;10.13;;;;;;;;;;143726;614;46010;-54
2021/08/03 01:09:26;;;;;;;43.40;11.85;;;;;;;;;;143727;600;46020;-53
2021/08/03 01:12:02;;;;;;;35.30;11.43;;;;;;;;;;143731;569;46010;-54
2021/08/03 01:14:51;;;;;;;35.40;10.57;;;;;;;;;;143728;688;46018;-53
2021/08/03 01:17:51;;;;;;;44.17;10.30;;;;;;;;;;143725;570;46919;-54
2021/08/03 01:20:59;;;;;;;44.15;11.65;;;;;;;;;;143728;575;46018;-54
2021/08/03 01:24:03;;;;;;;41.15;10.13;;;;;;;;;;143728;628;46022;-53
2021/08/03 01:26:57;;;;;;;35.78;10.45;;;;;;;;;;143728;573;46018;-54
2021/08/03 01:29:27;;;;;;;38.53;10.02;;;;;;;;;;143729;573;46010;-54
2021/08/03 01:32:04;;;;;;;28.60;9.07;;;;;;;;;;143726;711;46019;-54
2021/08/03 01:34:34;;;;;;;30.85;10.45;;;;;;;;;;143729;733;46012;-54
2021/08/03 01:37:02;;;;;;;37.90;10.48;;;;;;;;;;143727;595;46020;-53
2021/08/03 01:39:36;;;;;;;24.27;9.45;;;;;;;;;;143727;581;46010;-54
2021/08/03 01:42:06;;;;;;;34.45;10.48;;;;;;;;;;143726;585;46018;-54
2021/08/03 01:44:35;;;;;;;36.97;10.02;;;;;;;;;;143732;586;45036;-54
2021/08/03 01:47:04;;;;;;;33.38;10.95;;;;;;;;;;143730;578;46018;-54
2021/08/03 01:49:36;;;;;;;26.25;9.48;;;;;;;;;;143727;624;46022;-54
2021/08/03 01:52:07;;;;;;;42.33;11.05;;;;;;;;;;143728;588;46018;-54
2021/08/03 01:54:35;;;;;;;28.73;9.55;;;;;;;;;;143730;618;46023;-54
2021/08/03 01:57:03;;;;;;;38.50;10.43;;;;;;;;;;143727;564;46018;-54
2021/08/03 01:59:32;;;;;;;33.08;10.52;;;;;;;;;;143728;569;46010;-54
2021/08/03 02:02:00;;;;;;;28.27;10.85;;;;;;;;;;143731;666;46018;-54
2021/08/03 02:04:30;;;;;;;37.33;11.48;;;;;;;;;;143732;564;46022;-54
2021/08/03 02:06:57;;;;;;;47.30;14.32;;;;;;;;;;143724;569;47020;-54
2021/08/03 02:09:25;;;;;;;55.12;13.93;;;;;;;;;;143729;623;46010;-54
2021/08/03 02:11:53;;;;;;;51.80;14.32;;;;;;;;;;143727;569;46018;-54
2021/08/03 02:14:24;;;;;;;42.28;12.00;;;;;;;;;;143732;612;46022;-54
2021/08/03 02:16:51;;;;;;;45.30;12.70;;;;;;;;;;143727;567;47019;-53
2021/08/03 02:19:19;;;;;;;45.78;13.85;;;;;;;;;;143727;583;46010;-54
2021/08/03 02:21:47;;;;;;;46.03;14.55;;;;;;;;;;143726;590;46018;-54
2021/08/03 02:24:15;;;;;;;64.93;18.37;;;;;;;;;;143729;573;46022;-53
2021/08/03 02:26:42;;;;;;;72.05;21.05;;;;;;;;;;143725;612;46020;-53
2021/08/03 02:29:09;;;;;;;57.85;20.37;;;;;;;;;;143727;590;46010;-54
2021/08/03 02:32:00;;;;;;;60.58;20.73;;;;;;;;;;143727;576;46018;-53
2021/08/03 02:34:38;;;;;;;64.80;23.40;;;;;;;;;;143730;564;46022;-54
2021/08/03 02:37:11;;;;;;;68.28;23.25;;;;;;;;;;143728;589;46020;-54
2021/08/03 02:39:39;;;;;;;60.63;20.80;;;;;;;;;;143729;619;46010;-54
2021/08/03 02:42:08;;;;;;;103.55;37.63;;;;;;;;;;143728;656;46018;-54
2021/08/03 02:44:39;;;;;;;104.95;42.03;;;;;;;;;;143732;599;46022;-53
2021/08/03 02:49:53;;;;;;;99.20;36.42;;;;;;;;;;143725;565;47022;-54
2021/08/03 02:52:22;;;;;;;125.00;47.25;;;;;;;;;;143728;635;46018;-54
2021/08/03 02:54:58;;;;;;;107.47;39.97;;;;;;;;;;143732;631;46011;-53
2021/08/03 02:57:27;;;;;;;100.43;35.97;;;;;;;;;;143730;651;46018;-54
2021/08/03 02:59:59;;;;;;;103.32;38.42;;;;;;;;;;143729;577;46011;-53
2021/08/03 03:02:28;;;;;;;102.93;37.30;;;;;;;;;;143727;577;46019;-53
2021/08/03 03:05:01;;;;;;;87.28;32.05;;;;;;;;;;143732;590;46022;-53
2021/08/03 03:07:37;;;;;;;103.40;37.85;;;;;;;;;;143727;606;46020;-54
2021/08/03 03:10:11;;;;;;;87.88;30.10;;;;;;;;;;143727;584;46010;-54
2021/08/03 03:12:40;;;;;;;75.03;26.98;;;;;;;;;;143727;635;46018;-54
2021/08/03 03:15:09;;;;;;;89.68;27.75;;;;;;;;;;143733;573;45022;-54
2021/08/03 03:17:36;;;;;;;54.58;19.10;;;;;;;;;;143729;570;46018;-54
2021/08/03 03:20:06;;;;;;;66.50;19.23;;;;;;;;;;143728;566;46010;-54
2021/08/03 03:22:39;;;;;;;59.75;19.05;;;;;;;;;;143728;632;46018;-54
2021/08/03 03:25:06;;;;;;;67.82;20.95;;;;;;;;;;143731;570;46022;-53
2021/08/03 03:27:35;;;;;;;52.05;18.58;;;;;;;;;;143729;573;46018;-54
2021/08/03 03:30:03;;;;;;;69.65;22.15;;;;;;;;;;143730;578;46010;-54
2021/08/03 03:32:32;;;;;;;66.03;21.35;;;;;;;;;;143727;572;46019;-54
2021/08/03 03:35:00;;;;;;;66.15;23.87;;;;;;;;;;143732;581;46022;-54
2021/08/03 03:37:31;;;;;;;58.30;21.42;;;;;;;;;;143730;594;46018;-54
2021/08/03 03:39:59;;;;;;;55.90;20.85;;;;;;;;;;143729;594;46010;-54
2021/08/03 03:42:35;;;;;;;59.13;21.05;;;;;;;;;;143728;632;46018;-54
2021/08/03 03:45:04;;;;;;;64.82;19.92;;;;;;;;;;143733;626;46022;-54
2021/08/03 03:47:34;;;;;;;52.85;19.15;;;;;;;;;;143729;592;47018;-54
2021/08/03 03:50:16;;;;;;;71.93;23.75;;;;;;;;;;143730;594;46010;-54
2021/08/03 03:52:50;;;;;;;56.85;21.00;;;;;;;;;;143728;614;46019;-54
2021/08/03 03:55:22;;;;;;;59.58;20.70;;;;;;;;;;143732;591;46012;-53
2021/08/03 03:57:50;;;;;;;55.47;21.48;;;;;;;;;;143729;575;46018;-54
2021/08/03 04:00:19;;;;;;;60.95;18.80;;;;;;;;;;143730;604;46010;-53
2021/08/03 04:02:50;;;;;;;53.45;17.33;;;;;;;;;;143728;571;46019;-53
2021/08/03 04:05:18;;;;;;;57.38;17.58;;;;;;;;;;143733;586;46010;-54
2021/08/03 04:07:49;;;;;;;63.22;16.40;;;;;;;;;;143728;598;47020;-54
2021/08/03 04:10:18;;;;;;;54.22;15.20;;;;;;;;;;143729;623;46010;-54
2021/08/03 04:12:46;;;;;;;53.87;15.68;;;;;;;;;;143728;564;46018;-54
2021/08/03 04:15:14;;;;;;;42.03;15.07;;;;;;;;;;143734;640;45032;-53
2021/08/03 04:17:41;;;;;;;46.70;14.20;;;;;;;;;;143730;614;46018;-54
2021/08/03 04:20:09;;;;;;;53.00;14.90;;;;;;;;;;143730;575;46010;-53
2021/08/03 04:22:36;;;;;;;51.05;14.30;;;;;;;;;;143730;617;46018;-53
2021/08/03 04:25:03;;;;;;;64.45;15.10;;;;;;;;;;143733;616;46012;-54
2021/08/03 04:27:31;;;;;;;59.60;13.52;;;;;;;;;;143728;587;46020;-53
2021/08/03 04:29:58;;;;;;;47.70;13.00;;;;;;;;;;143729;577;46010;-54
2021/08/03 04:32:24;;;;;;;54.90;13.45;;;;;;;;;;143728;592;46019;-53
2021/08/03 04:34:52;;;;;;;59.10;13.18;;;;;;;;;;143731;590;46022;-54
2021/08/03 04:37:19;;;;;;;54.05;12.30;;;;;;;;;;143730;716;46019;-53
2021/08/03 04:39:46;;;;;;;38.35;11.50;;;;;;;;;;143728;582;46024;-54
2021/08/03 04:42:13;;;;;;;38.13;12.05;;;;;;;;;;143728;571;46018;-54
2021/08/03 04:44:40;;;;;;;45.90;12.77;;;;;;;;;;143733;615;46022;-54
2021/08/03 04:47:07;;;;;;;45.38;12.82;;;;;;;;;;143730;582;46018;-54
2021/08/03 04:49:34;;;;;;;54.55;12.30;;;;;;;;;;143728;580;46010;-54
2021/08/03 04:52:01;;;;;;;49.65;13.65;;;;;;;;;;143730;683;46018;-54
2021/08/03 04:54:28;;;;;;;42.85;12.48;;;;;;;;;;143732;594;46023;-53
2021/08/03 04:56:55;;;;;;;35.88;11.32;;;;;;;;;;143730;579;46018;-54
2021/08/03 04:59:22;;;;;;;52.72;12.32;;;;;;;;;;143729;576;46010;-54
2021/08/03 05:01:49;;;;;;;56.25;13.05;;;;;;;;;;143728;695;46019;-53
2021/08/03 05:04:16;;;;;;;52.38;13.23;;;;;;;;;;143733;569;46022;-52
2021/08/03 05:06:43;;;;;;;45.58;12.13;;;;;;;;;;143731;566;46019;-53
2021/08/03 05:09:10;;;;;;;61.15;12.57;;;;;;;;;;143730;576;46010;-52
2021/08/03 05:11:37;;;;;;;53.50;12.43;;;;;;;;;;143728;602;46018;-53
2021/08/03 05:14:04;;;;;;;34.45;12.07;;;;;;;;;;143733;594;46010;-54
2021/08/03 05:16:31;;;;;;;41.00;11.25;;;;;;;;;;143728;608;46019;-53
2021/08/03 05:18:58;;;;;;;35.20;11.18;;;;;;;;;;143730;589;46010;-52
2021/08/03 05:21:25;;;;;;;51.78;11.25;;;;;;;;;;143728;597;46018;-53
2021/08/03 05:23:52;;;;;;;43.90;11.98;;;;;;;;;;143734;573;45036;-52
2021/08/03 05:26:20;;;;;;;60.22;12.45;;;;;;;;;;143729;564;47018;-52
2021/08/03 05:28:47;;;;;;;51.97;12.15;;;;;;;;;;143728;607;46010;-52
2021/08/03 05:31:14;;;;;;;44.20;12.07;;;;;;;;;;143728;567;46019;-52
2021/08/03 05:33:41;;;;;;;31.65;10.90;;;;;;;;;;143732;605;46012;-52
2021/08/03 05:36:09;;;;;;;47.90;13.18;;;;;;;;;;143730;604;46018;-52
2021/08/03 05:38:35;;;;;;;51.65;12.80;;;;;;;;;;143731;627;46010;-53
2021/08/03 05:41:03;;;;;;;59.42;13.30;;;;;;;;;;143729;626;46018;-53
2021/08/03 05:43:30;;;;;;;49.65;12.82;;;;;;;;;;143733;656;46010;-54
2021/08/03 05:45:57;;;;;;;52.42;10.93;;;;;;;;;;143728;612;46019;-54
2021/08/03 05:48:24;;;;;;;31.80;10.65;;;;;;;;;;143731;645;46010;-54
2021/08/03 05:50:51;;;;;;;31.65;10.05;;;;;;;;;;143727;625;46018;-53
2021/08/03 05:53:18;;;;;;;44.42;10.73;;;;;;;;;;143731;564;46023;-53
2021/08/03 05:55:45;;;;;;;38.50;11.30;;;;;;;;;;143727;569;46020;-53
2021/08/03 05:58:12;;;;;;;50.70;11.68;;;;;;;;;;143730;570;46010;-54
2021/08/03 06:00:42;;;;;;;48.03;10.77;;;;;;;;;;143728;627;46019;-54
2021/08/03 06:03:10;;;;;;;36.35;10.93;;;;;;;;;;143733;575;46012;-53
2021/08/03 06:05:37;;;;;;;40.63;10.57;;;;;;;;;;143729;570;46018;-53
2021/08/03 06:08:07;;;;;;;50.97;11.63;;;;;;;;;;143730;576;46010;-53
2021/08/03 06:10:35;;;;;;;37.58;10.80;;;;;;;;;;143728;599;46020;-53
2021/08/03 06:13:03;;;;;;;30.67;10.68;;;;;;;;;;143734;613;45020;-53
2021/08/03 06:15:38;;;;;;;42.28;10.40;;;;;;;;;;143731;580;46018;-52
2021/08/03 06:18:13;;;;;;;41.97;10.40;;;;;;;;;;143729;600;46010;-53
2021/08/03 06:20:41;;;;;;;35.63;10.13;;;;;;;;;;143730;569;46018;-52
2021/08/03 06:23:12;;;;;;;37.97;10.32;;;;;;;;;;143731;642;46023;-52
2021/08/03 06:25:41;;;;;;;36.45;10.60;;;;;;;;;;143729;636;46020;-52
2021/08/03 06:28:08;;;;;;;45.03;10.52;;;;;;;;;;143729;563;46038;-52
2021/08/03 06:30:38;;;;;;;43.47;11.98;;;;;;;;;;143729;582;46021;-53
2021/08/03 06:33:08;;;;;;;31.20;10.05;;;;;;;;;;143732;602;46012;-53
2021/08/03 06:35:35;;;;;;;36.45;10.10;;;;;;;;;;143730;569;46020;-52
2021/08/03 06:38:02;;;;;;;37.17;11.00;;;;;;;;;;143727;575;46021;-53
2021/08/03 06:40:32;;;;;;;32.80;9.95;;;;;;;;;;143728;619;46020;-53
2021/08/03 06:43:06;;;;;;;32.70;9.98;;;;;;;;;;143731;584;46020;-53
2021/08/03 06:45:35;;;;;;;35.63;9.68;;;;;;;;;;143730;581;46020;-52
2021/08/03 06:48:06;;;;;;;32.97;9.68;;;;;;;;;;143732;639;46010;-53
2021/08/03 06:50:35;;;;;;;41.20;9.93;;;;;;;;;;143729;623;46020;-53
2021/08/03 06:53:05;;;;;;;39.65;10.57;;;;;;;;;;143733;564;46021;-53
2021/08/03 06:55:34;;;;;;;33.70;10.00;;;;;;;;;;143730;633;46020;-52
2021/08/03 06:58:04;;;;;;;40.05;10.48;;;;;;;;;;143729;600;46010;-53
2021/08/03 07:00:39;;;;;;;29.75;9.25;;;;;;;;;;143728;632;46021;-53
2021/08/03 07:03:07;;;;;;;31.90;9.30;;;;;;;;;;143734;587;46010;-53
2021/08/03 07:05:43;;;;;;;27.33;8.45;;;;;;;;;;143730;571;46021;-53
2021/08/03 07:08:11;;;;;;;22.08;8.98;;;;;;;;;;143729;611;46010;-53
2021/08/03 07:10:38;;;;;;;29.42;9.13;;;;;;;;;;143730;641;46018;-52
2021/08/03 07:13:06;;;;;;;32.15;9.77;;;;;;;;;;143733;656;45038;-52
2021/08/03 07:15:34;;;;;;;26.75;8.10;;;;;;;;;;143727;578;47021;-53
2021/08/03 07:18:02;;;;;;;25.40;8.77;;;;;;;;;;143728;590;46029;-53
2021/08/03 07:20:30;;;;;;;32.67;9.07;;;;;;;;;;143728;565;46020;-52
2021/08/03 07:22:58;;;;;;;28.27;8.38;;;;;;;;;;143732;571;46012;-53
2021/08/03 07:25:25;;;;;;;27.13;8.20;;;;;;;;;;143730;610;46020;-52
2021/08/03 07:27:52;;;;;;;30.20;8.88;;;;;;;;;;143729;569;46010;-52
2021/08/03 07:30:20;;;;;;;25.85;8.43;;;;;;;;;;143730;587;46021;-52
2021/08/03 07:32:47;;;;;;;27.37;8.18;;;;;;;;;;143730;607;46020;-52
2021/08/03 07:35:14;;;;;;;29.87;8.20;;;;;;;;;;143731;638;46020;-52
2021/08/03 07:37:41;;;;;;;32.22;8.23;;;;;;;;;;143729;567;46010;-53
2021/08/03 07:40:08;;;;;;;27.05;8.70;;;;;;;;;;143728;596;46020;-53
2021/08/03 07:42:36;;;;;;;24.23;7.10;;;;;;;;;;143734;585;45020;-53
2021/08/03 07:45:04;;;;;;;22.83;7.32;;;;;;;;;;143730;586;46021;-52
2021/08/03 07:47:33;;;;;;;25.50;7.30;;;;;;;;;;143727;934;46020;-53
2021/08/03 07:50:00;;;;;;;21.25;7.60;;;;;;;;;;143729;601;46020;-53
2021/08/03 07:52:27;;;;;;;30.58;7.47;;;;;;;;;;143732;785;46010;-52
2021/08/03 07:54:54;;;;;;;25.62;7.75;;;;;;;;;;143731;579;46020;-53
2021/08/03 07:57:22;;;;;;;22.08;6.82;;;;;;;;;;143730;694;46010;-52
2021/08/03 07:59:49;;;;;;;19.67;7.25;;;;;;;;;;143729;638;46021;-53
2021/08/03 08:02:16;;;;;;;24.02;7.87;;;;;;;;;;143731;755;46020;-53
2021/08/03 08:04:43;;;;;;;20.62;6.57;;;;;;;;;;143729;955;46020;-52
2021/08/03 08:07:10;;;;;;;27.40;7.00;;;;;;;;;;143728;598;46010;-52
2021/08/03 08:09:37;;;;;;;27.52;7.30;;;;;;;;;;143727;595;46020;-53
2021/08/03 08:12:04;;;;;;;16.40;7.35;;;;;;;;;;143728;575;46020;-52
2021/08/03 08:14:32;;;;;;;21.83;6.62;;;;;;;;;;143728;972;46021;-52
2021/08/03 08:17:00;;;;;;;23.75;6.65;;;;;;;;;;143726;982;46010;-52
2021/08/03 08:19:28;;;;;;;26.30;7.20;;;;;;;;;;143727;815;46020;-52
2021/08/03 08:21:55;;;;;;;30.77;7.62;;;;;;;;;;143730;631;46021;-52
2021/08/03 08:24:22;;;;;;;19.85;7.00;;;;;;;;;;143727;564;46023;-52
2021/08/03 08:26:50;;;;;;;26.20;8.32;;;;;;;;;;143727;598;46010;-52
2021/08/03 08:29:17;;;;;;;24.50;7.00;;;;;;;;;;143727;961;46021;-52
2021/08/03 08:31:45;;;;;;;21.10;7.28;;;;;;;;;;143731;863;46012;-53
2021/08/03 08:34:13;;;;;;;23.00;6.20;;;;;;;;;;143728;586;46020;-53
2021/08/03 08:36:40;;;;;;;28.92;7.03;;;;;;;;;;143727;607;46011;-53
2021/08/03 08:39:08;;;;;;;24.08;7.22;;;;;;;;;;143727;739;46020;-53
2021/08/03 08:41:35;;;;;;;23.98;7.35;;;;;;;;;;143730;665;46020;-52
2021/08/03 08:44:02;;;;;;;19.25;6.22;;;;;;;;;;143729;564;46021;-53
2021/08/03 08:46:35;;;;;;;22.55;6.37;;;;;;;;;;143728;598;46020;-52
2021/08/03 08:49:05;;;;;;;28.12;6.75;;;;;;;;;;143727;758;46020;-53
2021/08/03 08:51:32;;;;;;;31.87;7.32;;;;;;;;;;143730;618;46020;-53
2021/08/03 08:54:00;;;;;;;24.17;6.62;;;;;;;;;;143727;565;46023;-52
2021/08/03 08:56:30;;;;;;;17.20;6.82;;;;;;;;;;143728;629;46010;-53
2021/08/03 08:58:57;;;;;;;33.17;9.73;;;;;;;;;;143727;566;46020;-53
2021/08/03 09:01:24;;;;;;;22.27;7.12;;;;;;;;;;143731;668;46010;-52
2021/08/03 09:03:51;;;;;;;21.65;6.00;;;;;;;;;;143728;593;46020;-53
2021/08/03 09:06:22;;;;;;;17.08;5.93;;;;;;;;;;143727;599;46011;-52
2021/08/03 09:08:50;;;;;;;16.65;6.00;;;;;;;;;;143726;572;46021;-52
2021/08/03 09:11:21;;;;;;;20.17;6.80;;;;;;;;;;143729;569;46012;-52
2021/08/03 09:13:57;;;;;;;21.10;6.30;;;;;;;;;;143729;570;46021;-52
2021/08/03 09:16:48;;;;;;;18.12;6.47;;;;;;;;;;143727;577;46010;-53
2021/08/03 09:19:35;;;;;;;27.40;7.50;;;;;;;;;;143727;595;46022;-52
2021/08/03 09:22:23;;;;;;;25.55;6.62;;;;;;;;;;143731;648;46021;-52
2021/08/03 09:25:10;;;;;;;23.10;6.37;;;;;;;;;;143726;598;47020;-53
2021/08/03 09:27:42;;;;;;;23.15;7.53;;;;;;;;;;143727;645;46011;-52
2021/08/03 09:30:26;;;;;;;27.30;7.22;;;;;;;;;;143728;570;46018;-53
2021/08/03 09:32:53;;;;;;;16.95;6.55;;;;;;;;;;143730;589;46012;-52
2021/08/03 09:35:23;;;;;;;26.08;6.87;;;;;;;;;;143727;569;46022;-52
2021/08/03 09:37:50;;;;;;;34.30;7.30;;;;;;;;;;143727;565;46010;-52
2021/08/03 09:40:31;;;;;;;22.23;6.57;;;;;;;;;;143726;603;46020;-52
2021/08/03 09:43:02;;;;;;;19.70;7.65;;;;;;;;;;143729;684;46021;-53
2021/08/03 09:45:32;;;;;;;24.27;7.30;;;;;;;;;;143729;576;46020;-52
2021/08/03 09:48:16;;;;;;;22.02;7.07;;;;;;;;;;143727;618;46010;-53
2021/08/03 09:51:05;;;;;;;27.00;7.00;;;;;;;;;;143727;574;46020;-52
2021/08/03 09:53:53;;;;;;;22.62;6.97;;;;;;;;;;143730;597;46020;-52
2021/08/03 09:56:35;;;;;;;23.20;6.43;;;;;;;;;;143724;581;46912;-52
2021/08/03 09:59:04;;;;;;;20.77;6.47;;;;;;;;;;143726;666;46010;-53
2021/08/03 10:01:37;;;;;;;22.10;7.25;;;;;;;;;;143726;564;46020;-52
2021/08/03 10:04:12;;;;;;;16.42;6.30;;;;;;;;;;143730;564;46020;-53
2021/08/03 10:06:40;;;;;;;16.87;6.25;;;;;;;;;;143726;569;46021;-54
2021/08/03 10:09:11;;;;;;;17.30;6.45;;;;;;;;;;143727;579;46010;-53
2021/08/03 10:11:38;;;;;;;17.42;5.78;;;;;;;;;;143725;690;46020;-53
2021/08/03 10:14:06;;;;;;;20.62;6.70;;;;;;;;;;143730;588;46021;-53
2021/08/03 10:16:33;;;;;;;18.27;6.87;;;;;;;;;;143728;587;46020;-54
2021/08/03 10:19:01;;;;;;;22.83;6.10;;;;;;;;;;143727;571;46010;-54
2021/08/03 10:21:38;;;;;;;17.92;6.05;;;;;;;;;;143726;576;46021;-53
2021/08/03 10:24:34;;;;;;;19.85;6.10;;;;;;;;;;143730;564;46020;-54
2021/08/03 10:27:12;;;;;;;14.90;6.25;;;;;;;;;;143726;564;46024;-54
2021/08/03 10:29:47;;;;;;;26.05;6.37;;;;;;;;;;143727;665;46011;-55
2021/08/03 10:32:59;;;;;;;17.58;5.82;;;;;;;;;;143725;578;46020;-55
2021/08/03 10:35:49;;;;;;;25.77;7.20;;;;;;;;;;143732;573;46021;-54
2021/08/03 10:38:21;;;;;;;18.23;5.70;;;;;;;;;;143729;717;46020;-55
2021/08/03 10:41:06;;;;;;;;;;;;;;;;;;143732;978;46010;-55
2021/08/03 10:43:48;;;;;;;21.27;6.53;;;;;;;;;;143731;630;46021;-55
2021/08/03 10:46:35;;;;;;;22.95;6.55;;;;;;;;;;143730;583;46020;-55
2021/08/03 10:49:02;;;;;;;26.80;6.60;;;;;;;;;;143728;564;46020;-54
2021/08/03 10:51:38;;;;;;;23.30;6.65;;;;;;;;;;143727;681;46012;-55
2021/08/03 10:54:11;;;;;;;16.75;6.05;;;;;;;;;;143726;581;46020;-55
2021/08/03 10:57:13;;;;;;;20.23;6.57;;;;;;;;;;143732;566;45027;-55
2021/08/03 10:59:41;;;;;;;20.42;5.68;;;;;;;;;;143724;714;47020;-55
2021/08/03 11:02:42;;;;;;;31.58;7.18;;;;;;;;;;143725;581;46020;-54
2021/08/03 11:05:26;;;;;;;19.17;6.70;;;;;;;;;;143725;643;46022;-55
2021/08/03 11:07:53;;;;;;;18.25;6.47;;;;;;;;;;143728;630;46012;-54
2021/08/03 11:10:40;;;;;;;24.25;6.37;;;;;;;;;;143727;599;46020;-54
2021/08/03 11:13:45;;;;;;;20.98;6.62;;;;;;;;;;143727;566;46013;-55
2021/08/03 11:16:39;;;;;;;23.27;6.62;;;;;;;;;;143726;597;46022;-54
2021/08/03 11:19:07;;;;;;;17.02;5.70;;;;;;;;;;143731;589;46012;-54
2021/08/03 11:21:50;;;;;;;25.58;6.90;;;;;;;;;;143727;634;46023;-54
2021/08/03 11:24:37;;;;;;;20.67;5.93;;;;;;;;;;143727;691;46012;-54
2021/08/03 11:27:05;;;;;;;17.08;6.47;;;;;;;;;;143726;685;46020;-54
2021/08/03 11:29:37;;;;;;;22.33;6.07;;;;;;;;;;143730;573;46021;-54
2021/08/03 11:32:18;;;;;;;19.87;6.62;;;;;;;;;;143729;578;46020;-54
2021/08/03 11:34:47;;;;;;;23.35;6.30;;;;;;;;;;143727;567;46042;-54
2021/08/03 11:37:21;;;;;;;26.35;6.32;;;;;;;;;;143726;579;46021;-55
2021/08/03 11:39:57;;;;;;;27.92;6.95;;;;;;;;;;143730;582;46012;-54
2021/08/03 11:42:44;;;;;;;20.52;6.18;;;;;;;;;;143727;589;46022;-54
2021/08/03 11:45:17;;;;;;;23.38;6.95;;;;;;;;;;143727;569;46017;-55
2021/08/03 11:47:53;;;;;;;20.08;5.85;;;;;;;;;;143726;592;46020;-54
2021/08/03 11:50:41;;;;;;;24.92;7.25;;;;;;;;;;143730;588;46012;-54
2021/08/03 11:53:16;;;;;;;17.30;5.60;;;;;;;;;;143728;586;46020;-54
2021/08/03 11:55:52;;;;;;;28.95;7.22;;;;;;;;;;143727;569;46010;-55
2021/08/03 11:58:23;;;;;;;20.73;6.82;;;;;;;;;;143725;671;46021;-54
2021/08/03 12:00:55;;;;;;;19.37;6.28;;;;;;;;;;143729;703;46010;-54
2021/08/03 12:03:32;;;;;;;25.77;6.37;;;;;;;;;;143726;577;46022;-54
2021/08/03 12:06:03;;;;;;;14.65;5.97;;;;;;;;;;143727;580;46010;-54
2021/08/03 12:08:37;;;;;;;21.63;6.70;;;;;;;;;;143727;579;46020;-55
2021/08/03 12:11:05;;;;;;;15.30;5.50;;;;;;;;;;143728;588;46020;-54
2021/08/03 12:13:36;;;;;;;20.25;6.57;;;;;;;;;;143729;585;46020;-54
2021/08/03 12:16:07;;;;;;;21.00;5.95;;;;;;;;;;143727;577;46010;-54
2021/08/03 12:18:37;;;;;;;27.48;6.90;;;;;;;;;;143722;583;48020;-54
2021/08/03 12:21:04;;;;;;;17.42;6.40;;;;;;;;;;143729;592;46021;-54
2021/08/03 12:23:32;;;;;;;25.58;6.97;;;;;;;;;;143729;577;46020;-55
2021/08/03 12:26:02;;;;;;;23.58;6.37;;;;;;;;;;143727;571;46010;-55
2021/08/03 12:28:40;;;;;;;26.33;6.50;;;;;;;;;;143726;597;46021;-55
2021/08/03 12:31:41;;;;;;;20.35;6.43;;;;;;;;;;143729;579;46020;-54
2021/08/03 12:34:19;;;;;;;24.70;6.97;;;;;;;;;;143729;719;46021;-54
2021/08/03 12:36:54;;;;;;;21.05;6.32;;;;;;;;;;143726;589;46010;-54
2021/08/03 12:39:27;;;;;;;23.58;6.85;;;;;;;;;;143729;585;46010;-55
2021/08/03 12:42:19;;;;;;;32.30;6.93;;;;;;;;;;143724;609;46021;-54
2021/08/03 12:44:48;;;;;;;20.70;6.30;;;;;;;;;;143726;854;46020;-54
2021/08/03 12:47:17;;;;;;;22.98;6.75;;;;;;;;;;143727;575;46010;-54
2021/08/03 12:49:47;;;;;;;25.60;6.43;;;;;;;;;;143727;589;46021;-54
2021/08/03 12:52:25;;;;;;;23.65;7.25;;;;;;;;;;143731;635;46010;-54
2021/08/03 12:55:03;;;;;;;19.55;6.93;;;;;;;;;;143728;687;46020;-54
2021/08/03 12:57:49;;;;;;;27.58;6.62;;;;;;;;;;143728;564;46010;-55
2021/08/03 13:00:41;;;;;;;18.20;6.35;;;;;;;;;;143725;594;46020;-55
2021/08/03 13:03:13;;;;;;;16.97;5.97;;;;;;;;;;143730;981;46010;-54
2021/08/03 13:05:42;;;;;;;29.90;6.82;;;;;;;;;;143728;764;47021;-55
2021/08/03 13:08:09;;;;;;;21.85;6.45;;;;;;;;;;143726;813;46010;-54
2021/08/03 13:10:37;;;;;;;20.37;6.32;;;;;;;;;;143727;582;46020;-54
2021/08/03 13:13:04;;;;;;;18.10;6.82;;;;;;;;;;143731;583;46020;-54
2021/08/03 13:15:31;;;;;;;17.37;6.10;;;;;;;;;;143729;828;46020;-55
2021/08/03 13:17:59;;;;;;;27.02;6.85;;;;;;;;;;143727;946;46010;-54
2021/08/03 13:20:26;;;;;;;18.33;6.05;;;;;;;;;;143727;583;46021;-54
2021/08/03 13:22:53;;;;;;;16.90;5.97;;;;;;;;;;143728;591;46020;-54
2021/08/03 13:25:20;;;;;;;19.45;6.30;;;;;;;;;;143727;716;46022;-54
2021/08/03 13:27:47;;;;;;;29.48;6.22;;;;;;;;;;143727;570;46010;-55
2021/08/03 13:30:14;;;;;;;17.60;6.10;;;;;;;;;;143725;619;46020;-54
2021/08/03 13:32:41;;;;;;;15.18;6.37;;;;;;;;;;143728;571;46020;-54
2021/08/03 13:35:08;;;;;;;17.77;6.25;;;;;;;;;;143726;770;46021;-55
2021/08/03 13:37:35;;;;;;;20.45;6.32;;;;;;;;;;143727;585;46010;-54
2021/08/03 14:47:54;;;;;;;17.90;6.28;;;;;;;;;;143800;597;46022;-55
2021/08/03 14:50:21;;;;;;;19.08;5.35;;;;;;;;;;143758;569;45021;-54
2021/08/03 14:52:49;;;;;;;19.00;6.43;;;;;;;;;;143753;580;46020;-54
2021/08/03 14:55:16;;;;;;;21.67;6.53;;;;;;;;;;143753;570;46010;-54
2021/08/03 14:57:43;;;;;;;16.48;5.47;;;;;;;;;;143756;600;45021;-54
2021/08/03 15:00:11;;;;;;;24.55;6.37;;;;;;;;;;143758;585;45020;-54
2021/08/03 15:02:38;;;;;;;18.87;6.32;;;;;;;;;;143755;588;46020;-54
2021/08/03 15:05:05;;;;;;;20.83;5.70;;;;;;;;;;143751;581;47010;-54
2021/08/03 15:07:32;;;;;;;22.42;6.75;;;;;;;;;;143757;595;45012;-55
2021/08/03 15:09:59;;;;;;;16.73;6.03;;;;;;;;;;143757;569;46020;-55
2021/08/03 15:12:26;;;;;;;17.65;5.70;;;;;;;;;;143762;623;46021;-55
2021/08/03 15:14:53;;;;;;;21.60;6.85;;;;;;;;;;143761;603;45919;-54
2021/08/03 15:17:20;;;;;;;18.12;6.50;;;;;;;;;;143761;613;45012;-54
2021/08/03 15:19:47;;;;;;;18.12;5.70;;;;;;;;;;143764;618;45020;-54
2021/08/03 15:22:14;;;;;;;23.62;6.28;;;;;;;;;;143762;649;46020;-54
2021/08/03 15:24:43;;;;;;;17.30;5.75;;;;;;;;;;143760;648;46010;-54
2021/08/03 15:27:11;;;;;;;21.80;5.53;;;;;;;;;;143760;575;45914;-54
2021/08/03 15:29:40;;;;;;;18.02;5.93;;;;;;;;;;143766;608;45020;-54
2021/08/03 15:32:07;;;;;;;20.65;6.60;;;;;;;;;;143762;584;46020;-54
2021/08/03 15:34:34;;;;;;;17.30;6.22;;;;;;;;;;143759;598;45920;-55
2021/08/03 15:37:01;;;;;;;23.35;6.28;;;;;;;;;;143759;585;45020;-54
2021/08/03 15:39:28;;;;;;;20.62;6.25;;;;;;;;;;143765;573;45020;-54
2021/08/03 15:41:55;;;;;;;21.23;5.70;;;;;;;;;;143762;611;46021;-54
2021/08/03 15:44:22;;;;;;;18.00;6.62;;;;;;;;;;143763;569;45010;-54
2021/08/03 15:46:49;;;;;;;20.62;6.72;;;;;;;;;;143752;620;45020;-55
2021/08/03 15:49:16;;;;;;;26.23;7.03;;;;;;;;;;143735;616;46010;-54
2021/08/03 15:51:43;;;;;;;16.25;6.35;;;;;;;;;;143731;614;47023;-54
2021/08/03 15:54:11;;;;;;;31.48;7.22;;;;;;;;;;143733;583;46010;-54
2021/08/03 15:56:38;;;;;;;16.60;6.10;;;;;;;;;;143735;643;45021;-54
2021/08/03 15:59:05;;;;;;;19.77;6.57;;;;;;;;;;143736;641;46018;-54